createdAt,value
2023-03-07T00:00:22.040Z,58.07
2023-03-07T00:02:24.650Z,58.12
2023-03-07T00:04:27.210Z,57.96
2023-03-07T00:06:30.016Z,57.17
2023-03-07T00:08:33.217Z,57.06
2023-03-07T00:10:35.777Z,56.72
2023-03-07T00:12:40.446Z,55.83
2023-03-07T00:14:43.072Z,56.46
2023-03-07T00:16:45.892Z,56.77
2023-03-07T00:18:48.909Z,56.88
2023-03-07T00:20:58.111Z,56.48
2023-03-07T00:23:00.783Z,56.37
2023-03-07T00:25:03.567Z,56.16
2023-03-07T00:27:06.587Z,56.46
2023-03-07T00:29:11.727Z,56.53
2023-03-07T00:31:14.541Z,56.22
2023-03-07T00:33:17.136Z,55.95
2023-03-07T00:35:19.683Z,55.86
2023-03-07T00:37:22.763Z,56.68
2023-03-07T00:39:25.341Z,56.74
2023-03-07T00:41:29.403Z,56.18
2023-03-07T00:43:32.578Z,56.44
2023-03-07T00:45:36.485Z,56.72
2023-03-07T00:47:39.093Z,56.69
2023-03-07T00:49:41.656Z,56.35
2023-03-07T00:58:29.143Z,56.88
2023-03-07T01:00:31.749Z,56.32
2023-03-07T01:02:35.646Z,56.76
2023-03-07T01:04:38.280Z,56.51
2023-03-07T01:06:43.194Z,57.18
2023-03-07T01:08:48.605Z,56.33
2023-03-07T01:10:51.742Z,56.65
2023-03-07T01:12:54.615Z,56.96
2023-03-07T01:14:57.249Z,56.70
2023-03-07T01:17:01.039Z,57.51
2023-03-07T01:19:06.585Z,57.57
2023-03-07T01:21:14.473Z,57.45
2023-03-07T01:23:17.113Z,56.96
2023-03-07T01:25:19.720Z,57.23
2023-03-07T01:27:22.321Z,57.67
2023-03-07T01:29:25.087Z,57.71
2023-03-07T01:31:30.076Z,57.50
2023-03-07T01:33:32.685Z,57.76
2023-03-07T01:35:39.927Z,57.86
2023-03-07T01:37:42.547Z,57.80
2023-03-07T01:39:45.235Z,57.84
2023-03-07T01:41:47.814Z,58.17
2023-03-07T01:43:51.016Z,57.65
2023-03-07T01:46:26.990Z,57.77
2023-03-07T01:48:29.647Z,58.21
2023-03-07T01:50:32.457Z,57.79
2023-03-07T01:52:40.860Z,57.64
2023-03-07T01:54:49.072Z,57.00
2023-03-07T01:56:53.308Z,56.15
2023-03-07T01:58:56.718Z,56.63
2023-03-07T02:00:59.665Z,57.09
2023-03-07T02:03:10.219Z,56.20
2023-03-07T02:05:16.134Z,56.22
2023-03-07T02:07:21.604Z,55.89
2023-03-07T02:09:28.038Z,56.49
2023-03-07T02:11:31.441Z,56.46
2023-03-07T02:13:35.247Z,55.47
2023-03-07T02:15:38.447Z,56.04
2023-03-07T02:17:42.861Z,55.43
2023-03-07T02:20:05.761Z,56.16
2023-03-07T02:22:15.644Z,55.75
2023-03-07T02:24:27.112Z,56.25
2023-03-07T02:26:41.774Z,55.84
2023-03-07T02:28:46.930Z,56.11
2023-03-07T02:30:57.942Z,55.60
2023-03-07T02:33:00.542Z,55.86
2023-03-07T02:35:03.286Z,55.85
2023-03-07T02:37:11.782Z,55.38
2023-03-07T02:39:15.047Z,55.46
2023-03-07T02:41:21.829Z,55.39
2023-03-07T02:43:26.195Z,55.44
2023-03-07T02:45:28.802Z,55.83
2023-03-07T02:47:31.425Z,55.20
2023-03-07T02:49:34.025Z,55.40
2023-03-07T02:51:36.626Z,54.92
2023-03-07T02:53:39.446Z,54.93
2023-03-07T02:55:42.033Z,55.27
2023-03-07T02:57:44.606Z,55.29
2023-03-07T02:59:48.721Z,55.42
2023-03-07T03:01:51.515Z,54.99
2023-03-07T03:03:54.337Z,55.44
2023-03-07T03:05:56.877Z,55.43
2023-03-07T03:07:59.431Z,55.13
2023-03-07T03:10:02.050Z,55.53
2023-03-07T03:12:04.974Z,54.46
2023-03-07T03:14:07.615Z,55.13
2023-03-07T03:16:11.543Z,55.13
2023-03-07T03:18:14.246Z,54.73
2023-03-07T03:20:17.146Z,54.68
2023-03-07T03:22:20.419Z,55.09
2023-03-07T03:24:23.025Z,55.72
2023-03-07T03:26:25.594Z,55.53
2023-03-07T03:28:29.138Z,55.72
2023-03-07T03:30:32.409Z,55.30
2023-03-07T03:32:37.850Z,55.70
2023-03-07T03:34:40.714Z,55.40
2023-03-07T03:36:43.396Z,55.76
2023-03-07T03:38:46.835Z,55.54
2023-03-07T03:40:49.463Z,55.39
2023-03-07T03:42:52.760Z,54.50
2023-03-07T03:44:55.348Z,55.58
2023-03-07T03:46:58.059Z,55.78
2023-03-07T03:49:02.016Z,55.23
2023-03-07T03:51:06.635Z,55.88
2023-03-07T03:53:09.202Z,55.55
2023-03-07T03:55:11.991Z,56.09
2023-03-07T03:57:17.804Z,55.62
2023-03-07T03:59:20.456Z,54.74
2023-03-07T04:01:25.169Z,55.50
2023-03-07T04:03:27.733Z,55.16
2023-03-07T04:05:34.034Z,55.31
2023-03-07T04:07:36.630Z,54.32
2023-03-07T04:09:39.234Z,54.57
2023-03-07T04:11:42.052Z,54.10
2023-03-07T04:13:44.670Z,54.23
2023-03-07T04:15:47.296Z,54.72
2023-03-07T04:17:49.897Z,54.66
2023-03-07T04:19:53.019Z,54.23
2023-03-07T04:21:56.955Z,54.26
2023-03-07T04:23:59.531Z,54.29
2023-03-07T04:26:03.749Z,54.00
2023-03-07T04:28:06.457Z,54.20
2023-03-07T04:30:10.481Z,54.67
2023-03-07T04:32:13.046Z,53.32
2023-03-07T04:34:15.689Z,53.81
2023-03-07T04:36:19.604Z,53.43
2023-03-07T04:38:23.545Z,53.70
2023-03-07T04:40:26.231Z,53.82
2023-03-07T04:42:28.855Z,53.98
2023-03-07T04:44:31.435Z,54.13
2023-03-07T04:46:34.016Z,53.74
2023-03-07T04:48:36.646Z,54.35
2023-03-07T04:50:39.226Z,54.38
2023-03-07T04:52:41.843Z,53.91
2023-03-07T04:54:45.818Z,53.17
2023-03-07T04:56:48.382Z,53.15
2023-03-07T04:58:50.952Z,53.88
2023-03-07T05:00:53.506Z,53.79
2023-03-07T05:02:58.645Z,54.21
2023-03-07T05:05:01.217Z,53.67
2023-03-07T05:07:03.990Z,53.31
2023-03-07T05:09:06.543Z,53.15
2023-03-07T05:11:10.528Z,53.05
2023-03-07T05:13:13.321Z,53.22
2023-03-07T05:15:15.882Z,53.25
2023-03-07T05:17:20.168Z,53.73
2023-03-07T05:19:22.757Z,52.88
2023-03-07T05:21:25.402Z,53.31
2023-03-07T05:23:27.996Z,53.68
2023-03-07T05:25:30.564Z,53.28
2023-03-07T05:27:34.619Z,53.41
2023-03-07T05:29:37.167Z,53.52
2023-03-07T05:31:39.745Z,53.09
2023-03-07T05:33:42.839Z,53.53
2023-03-07T05:35:45.701Z,52.82
2023-03-07T05:37:48.532Z,52.63
2023-03-07T05:39:51.147Z,52.99
2023-03-07T05:41:53.737Z,52.89
2023-03-07T05:43:58.269Z,52.45
2023-03-07T05:46:00.925Z,52.63
2023-03-07T05:48:03.539Z,52.17
2023-03-07T05:50:07.520Z,52.36
2023-03-07T05:52:10.130Z,51.67
2023-03-07T05:54:12.683Z,51.50
2023-03-07T05:56:15.281Z,51.34
2023-03-07T05:58:17.867Z,51.90
2023-03-07T06:00:23.227Z,51.57
2023-03-07T06:02:25.913Z,51.95
2023-03-07T06:04:28.625Z,52.31
2023-03-07T06:06:31.234Z,52.42
2023-03-07T06:08:33.847Z,52.82
2023-03-07T06:10:40.202Z,52.90
2023-03-07T06:12:43.061Z,52.42
2023-03-07T06:14:45.680Z,52.71
2023-03-07T06:16:49.633Z,52.67
2023-03-07T06:18:52.232Z,51.95
2023-03-07T06:20:59.613Z,52.07
2023-03-07T06:23:02.434Z,52.28
2023-03-07T06:25:05.378Z,52.42
2023-03-07T06:27:08.051Z,52.18
2023-03-07T06:29:11.706Z,51.23
2023-03-07T06:31:16.953Z,51.55
2023-03-07T06:33:21.710Z,52.07
2023-03-07T06:35:24.299Z,52.22
2023-03-07T06:37:26.970Z,51.79
2023-03-07T06:39:31.316Z,52.16
2023-03-07T06:41:34.086Z,52.52
2023-03-07T06:43:37.064Z,51.86
2023-03-07T06:45:39.648Z,52.42
2023-03-07T06:47:42.243Z,52.64
2023-03-07T06:49:46.143Z,52.63
2023-03-07T06:51:48.735Z,51.60
2023-03-07T06:53:51.332Z,52.15
2023-03-07T06:55:54.010Z,51.75
2023-03-07T06:57:56.756Z,52.26
2023-03-07T06:59:59.339Z,52.32
2023-03-07T07:02:02.670Z,51.92
2023-03-07T07:04:05.731Z,51.98
2023-03-07T07:06:09.639Z,52.46
2023-03-07T07:08:12.790Z,52.86
2023-03-07T07:10:15.449Z,51.56
2023-03-07T07:12:18.361Z,52.46
2023-03-07T07:14:21.931Z,52.58
2023-03-07T07:16:24.582Z,52.59
2023-03-07T07:18:27.184Z,51.65
2023-03-07T07:20:30.197Z,51.57
2023-03-07T07:22:34.783Z,51.44
2023-03-07T07:24:37.386Z,51.54
2023-03-07T07:26:40.015Z,52.03
2023-03-07T07:28:42.708Z,51.53
2023-03-07T07:30:45.376Z,51.81
2023-03-07T07:32:48.179Z,51.37
2023-03-07T07:34:53.858Z,50.76
2023-03-07T07:36:56.826Z,51.49
2023-03-07T07:39:03.938Z,51.14
2023-03-07T07:41:06.879Z,51.41
2023-03-07T07:43:15.306Z,51.18
2023-03-07T07:45:18.106Z,51.76
2023-03-07T07:47:20.678Z,51.56
2023-03-07T07:49:23.292Z,51.87
2023-03-07T07:51:25.871Z,51.66
2023-03-07T07:53:28.593Z,51.66
2023-03-07T07:55:32.597Z,51.34
2023-03-07T07:57:35.173Z,51.30
2023-03-07T07:59:37.745Z,50.86
2023-03-07T08:01:40.452Z,50.88
2023-03-07T08:03:43.220Z,50.99
2023-03-07T08:05:48.174Z,51.47
2023-03-07T08:07:51.165Z,51.83
2023-03-07T08:09:53.963Z,52.22
2023-03-07T08:11:57.913Z,51.87
2023-03-07T08:14:00.742Z,52.13
2023-03-07T08:16:10.030Z,50.33
2023-03-07T08:18:12.874Z,50.17
2023-03-07T08:20:15.786Z,50.72
2023-03-07T08:22:19.514Z,50.40
2023-03-07T08:24:29.373Z,50.37
2023-03-07T08:26:41.251Z,49.61
2023-03-07T08:28:45.724Z,50.61
2023-03-07T08:30:48.309Z,50.27
2023-03-07T08:32:51.364Z,50.06
2023-03-07T08:34:54.624Z,50.90
2023-03-07T08:36:57.204Z,51.00
2023-03-07T08:38:59.772Z,50.45
2023-03-07T08:41:03.889Z,50.14
2023-03-07T08:43:06.502Z,50.43
2023-03-07T08:45:11.576Z,50.64
2023-03-07T08:47:14.156Z,49.90
2023-03-07T08:49:16.769Z,50.47
2023-03-07T08:51:19.561Z,50.58
2023-03-07T08:53:22.201Z,50.51
2023-03-07T08:55:24.767Z,50.60
2023-03-07T08:57:27.415Z,50.05
2023-03-07T08:59:29.989Z,50.04
2023-03-07T09:01:33.958Z,50.54
2023-03-07T09:03:37.441Z,49.96
2023-03-07T09:05:40.210Z,48.61
2023-03-07T09:07:43.094Z,48.37
2023-03-07T09:09:45.742Z,48.92
2023-03-07T09:11:48.333Z,49.21
2023-03-07T09:13:52.689Z,49.55
2023-03-07T09:15:55.846Z,49.68
2023-03-07T09:17:59.823Z,49.70
2023-03-07T09:20:02.502Z,48.98
2023-03-07T09:22:05.188Z,49.30
2023-03-07T09:24:08.300Z,49.62
2023-03-07T09:26:11.180Z,49.91
2023-03-07T09:28:14.462Z,50.35
2023-03-07T09:30:17.837Z,50.34
2023-03-07T09:32:20.553Z,49.66
2023-03-07T09:34:25.278Z,48.75
2023-03-07T09:36:27.898Z,47.27
2023-03-07T09:38:30.478Z,48.15
2023-03-07T09:40:33.187Z,48.84
2023-03-07T09:42:44.314Z,48.84
2023-03-07T09:45:04.269Z,49.02
2023-03-07T09:47:23.148Z,49.51
2023-03-07T09:49:35.864Z,49.12
2023-03-07T09:51:41.895Z,48.96
2023-03-07T09:53:48.826Z,48.86
2023-03-07T09:55:55.609Z,48.48
2023-03-07T09:58:01.691Z,47.84
2023-03-07T10:00:09.037Z,47.80
2023-03-07T10:02:18.978Z,48.24
2023-03-07T10:04:42.400Z,48.04
2023-03-07T10:06:52.529Z,48.58
2023-03-07T10:08:56.540Z,48.28
2023-03-07T10:11:12.245Z,48.39
2023-03-07T10:13:44.005Z,47.49
2023-03-07T10:15:48.939Z,46.84
2023-03-07T10:18:13.711Z,46.54
2023-03-07T10:20:23.544Z,46.91
2023-03-07T10:22:34.991Z,46.44
2023-03-07T10:25:00.106Z,47.07
2023-03-07T10:27:06.593Z,46.21
2023-03-07T10:29:16.000Z,45.97
2023-03-07T10:31:23.415Z,45.06
2023-03-07T10:33:27.391Z,44.49
2023-03-07T10:35:40.327Z,44.58
2023-03-07T10:37:50.304Z,44.55
2023-03-07T10:39:54.722Z,45.05
2023-03-07T10:41:58.046Z,44.88
2023-03-07T10:44:00.756Z,44.27
2023-03-07T10:46:24.610Z,44.52
2023-03-07T10:48:29.283Z,44.83
2023-03-07T10:50:39.387Z,45.53
2023-03-07T10:52:48.601Z,46.17
2023-03-07T10:54:51.169Z,45.86
2023-03-07T10:57:08.492Z,45.99
2023-03-07T10:59:11.473Z,45.57
2023-03-07T11:01:18.479Z,45.08
2023-03-07T11:03:25.355Z,44.87
2023-03-07T11:05:32.513Z,45.20
2023-03-07T11:07:37.295Z,44.59
2023-03-07T11:09:48.381Z,45.55
2023-03-07T11:11:53.961Z,45.67
2023-03-07T11:14:07.879Z,45.53
2023-03-07T11:16:21.295Z,45.17
2023-03-07T11:18:31.905Z,45.54
2023-03-07T11:20:49.368Z,45.52
2023-03-07T11:23:14.464Z,45.29
2023-03-07T11:25:22.724Z,45.51
2023-03-07T11:27:32.877Z,45.30
2023-03-07T11:29:35.618Z,44.49
2023-03-07T11:31:53.370Z,44.13
2023-03-07T11:34:08.114Z,44.00
2023-03-07T11:36:15.540Z,43.52
2023-03-07T11:38:26.580Z,44.07
2023-03-07T11:40:34.782Z,44.23
2023-03-07T11:42:43.833Z,44.35
2023-03-07T11:44:53.147Z,43.92
2023-03-07T11:47:12.601Z,44.17
2023-03-07T11:49:27.483Z,44.49
2023-03-07T11:51:45.474Z,44.90
2023-03-07T11:53:57.915Z,43.54
2023-03-07T11:56:20.375Z,44.75
2023-03-07T11:58:52.011Z,44.13
2023-03-07T12:01:09.848Z,44.42
2023-03-07T12:03:49.862Z,44.70
2023-03-07T12:06:23.602Z,44.53
2023-03-07T12:08:38.639Z,44.95
2023-03-07T12:10:53.667Z,45.07
2023-03-07T12:13:07.638Z,43.13
2023-03-07T12:15:28.231Z,43.69
2023-03-07T12:17:43.465Z,44.28
2023-03-07T12:20:09.067Z,44.55
2023-03-07T12:22:29.657Z,44.25
2023-03-07T12:24:38.391Z,43.27
2023-03-07T12:26:51.441Z,43.31
2023-03-07T12:29:01.938Z,43.47
2023-03-07T12:31:12.375Z,43.00
2023-03-07T12:33:23.834Z,42.63
2023-03-07T12:35:31.633Z,43.29
2023-03-07T12:37:43.568Z,43.22
2023-03-07T12:39:52.348Z,42.74
2023-03-07T12:42:04.610Z,42.65
2023-03-07T12:44:16.283Z,43.09
2023-03-07T12:46:24.407Z,42.65
2023-03-07T12:48:37.478Z,41.64
2023-03-07T12:50:51.693Z,41.06
2023-03-07T12:52:59.940Z,41.17
2023-03-07T12:55:09.654Z,41.78
2023-03-07T12:57:18.747Z,41.85
2023-03-07T12:59:23.230Z,41.12
2023-03-07T13:01:30.374Z,41.39
2023-03-07T13:03:42.336Z,40.35
2023-03-07T13:05:45.008Z,40.09
2023-03-07T13:07:48.807Z,39.73
2023-03-07T13:09:53.934Z,38.62
2023-03-07T13:12:24.534Z,38.26
2023-03-07T13:14:41.971Z,38.29
2023-03-07T13:16:46.030Z,37.45
2023-03-07T13:18:48.688Z,37.59
2023-03-07T13:21:23.785Z,38.33
2023-03-07T13:23:29.822Z,39.03
2023-03-07T13:26:00.412Z,39.36
2023-03-07T13:28:04.528Z,40.02
2023-03-07T13:30:21.536Z,40.36
2023-03-07T13:32:59.422Z,40.99
2023-03-07T13:35:02.479Z,41.13
2023-03-07T13:37:46.701Z,41.45
2023-03-07T13:40:02.720Z,40.90
2023-03-07T13:42:05.592Z,40.76
2023-03-07T13:44:29.011Z,40.23
2023-03-07T13:47:01.268Z,39.83
2023-03-07T13:49:03.988Z,39.20
2023-03-07T13:51:08.937Z,38.27
2023-03-07T13:53:15.717Z,38.43
2023-03-07T13:55:41.809Z,38.07
2023-03-07T13:57:44.629Z,37.86
2023-03-07T13:59:49.410Z,37.65
2023-03-07T14:01:58.501Z,37.79
2023-03-07T14:04:07.413Z,37.11
2023-03-07T14:06:14.702Z,37.43
2023-03-07T14:08:17.294Z,36.66
2023-03-07T14:10:25.248Z,36.82
2023-03-07T14:12:36.409Z,37.08
2023-03-07T14:15:05.496Z,37.11
2023-03-07T14:17:19.300Z,36.67
2023-03-07T14:19:35.443Z,36.56
2023-03-07T14:21:53.696Z,36.52
2023-03-07T14:24:26.353Z,35.87
2023-03-07T14:26:33.772Z,36.55
2023-03-07T14:28:36.386Z,36.48
2023-03-07T14:30:38.961Z,36.74
2023-03-07T14:32:42.934Z,36.92
2023-03-07T14:34:48.974Z,36.84
2023-03-07T14:36:54.600Z,37.03
2023-03-07T14:39:02.139Z,37.61
2023-03-07T14:41:29.256Z,36.82
2023-03-07T14:43:44.624Z,37.09
2023-03-07T14:45:53.770Z,37.14
2023-03-07T14:48:20.123Z,37.49
2023-03-07T14:50:26.771Z,37.27
2023-03-07T14:52:31.782Z,38.07
2023-03-07T14:54:38.188Z,38.68
2023-03-07T14:56:41.138Z,38.38
2023-03-07T14:58:50.381Z,38.52
2023-03-07T15:01:01.167Z,38.65
2023-03-07T15:03:08.069Z,38.18
2023-03-07T15:05:16.151Z,37.64
2023-03-07T15:07:25.398Z,37.71
2023-03-07T15:09:29.624Z,38.02
2023-03-07T15:11:37.926Z,38.71
2023-03-07T15:13:46.623Z,38.92
2023-03-07T15:15:55.066Z,38.58
2023-03-07T15:18:03.299Z,38.37
2023-03-07T15:20:11.567Z,38.14
2023-03-07T15:22:19.348Z,37.84
2023-03-07T15:24:28.891Z,37.62
2023-03-07T15:26:33.042Z,37.23
2023-03-07T15:28:37.660Z,37.14
2023-03-07T15:30:40.306Z,38.01
2023-03-07T15:32:42.938Z,37.97
2023-03-07T15:34:45.611Z,38.40
2023-03-07T15:36:49.619Z,37.98
2023-03-07T15:38:54.213Z,38.44
2023-03-07T15:40:56.771Z,38.93
2023-03-07T15:43:02.273Z,38.85
2023-03-07T15:45:06.701Z,38.56
2023-03-07T15:47:17.875Z,38.60
2023-03-07T15:49:26.585Z,38.62
2023-03-07T15:51:36.742Z,38.82
2023-03-07T15:53:42.629Z,38.81
2023-03-07T15:55:54.973Z,39.12
2023-03-07T15:58:00.516Z,39.27
2023-03-07T16:00:05.642Z,39.63
2023-03-07T16:02:37.871Z,39.86
2023-03-07T16:04:40.774Z,40.18
2023-03-07T16:06:45.272Z,39.47
2023-03-07T16:08:49.818Z,39.49
2023-03-07T16:10:57.644Z,39.46
2023-03-07T16:13:01.420Z,39.46
2023-03-07T16:15:04.557Z,38.77
2023-03-07T16:17:18.434Z,38.53
2023-03-07T16:19:21.084Z,38.79
2023-03-07T16:21:23.972Z,38.94
2023-03-07T16:23:28.749Z,38.94
2023-03-07T16:25:32.934Z,38.48
2023-03-07T16:27:35.481Z,38.63
2023-03-07T16:29:38.111Z,38.38
2023-03-07T16:31:40.835Z,38.27
2023-03-07T16:33:43.851Z,38.48
2023-03-07T16:35:47.619Z,38.72
2023-03-07T16:37:50.311Z,38.53
2023-03-07T16:39:55.845Z,39.44
2023-03-07T16:42:00.130Z,39.48
2023-03-07T16:44:02.736Z,40.20
2023-03-07T16:46:07.337Z,40.16
2023-03-07T16:48:13.462Z,40.03
2023-03-07T16:50:17.390Z,40.49
2023-03-07T16:52:23.481Z,40.45
2023-03-07T16:54:26.088Z,40.66
2023-03-07T16:56:32.425Z,41.12
2023-03-07T16:58:37.046Z,41.46
2023-03-07T17:00:40.555Z,41.07
2023-03-07T17:02:43.481Z,41.16
2023-03-07T17:04:46.451Z,41.20
2023-03-07T17:07:00.969Z,41.48
2023-03-07T17:09:07.210Z,41.81
2023-03-07T17:11:17.751Z,42.04
2023-03-07T17:13:20.441Z,42.25
2023-03-07T17:15:30.336Z,42.47
2023-03-07T17:17:36.417Z,42.45
2023-03-07T17:19:39.045Z,42.92
2023-03-07T17:21:41.617Z,42.86
2023-03-07T17:23:45.076Z,42.61
2023-03-07T17:25:47.652Z,42.62
2023-03-07T17:27:55.251Z,42.24
2023-03-07T17:29:57.832Z,42.34
2023-03-07T17:32:01.926Z,42.66
2023-03-07T17:34:04.534Z,42.79
2023-03-07T17:36:08.019Z,43.10
2023-03-07T17:38:10.625Z,42.83
2023-03-07T17:40:14.000Z,42.95
2023-03-07T17:42:16.604Z,43.28
2023-03-07T17:44:19.247Z,43.04
2023-03-07T17:46:24.469Z,43.07
2023-03-07T17:48:28.570Z,42.80
2023-03-07T17:50:31.211Z,42.50
2023-03-07T17:52:34.532Z,43.11
2023-03-07T17:54:37.299Z,42.97
2023-03-07T17:56:40.607Z,43.16
2023-03-07T17:58:43.342Z,43.34
2023-03-07T18:00:45.944Z,43.55
2023-03-07T18:02:48.606Z,43.90
2023-03-07T18:04:52.638Z,44.02
2023-03-07T18:06:55.215Z,44.18
2023-03-07T18:08:57.777Z,43.96
2023-03-07T18:11:04.476Z,44.70
2023-03-07T18:13:09.375Z,44.78
2023-03-07T18:15:15.350Z,45.21
2023-03-07T18:17:18.058Z,45.51
2023-03-07T18:19:26.821Z,45.59
2023-03-07T18:21:31.315Z,45.72
2023-03-07T18:23:36.061Z,45.54
2023-03-07T18:25:38.613Z,45.29
2023-03-07T18:27:41.310Z,45.37
2023-03-07T18:29:44.933Z,45.51
2023-03-07T18:31:47.865Z,45.64
2023-03-07T18:33:52.591Z,45.85
2023-03-07T18:35:56.403Z,45.69
2023-03-07T18:38:00.725Z,45.51
2023-03-07T18:40:04.302Z,45.64
2023-03-07T18:42:07.015Z,45.63
2023-03-07T18:44:10.135Z,45.67
2023-03-07T18:46:14.408Z,45.01
2023-03-07T18:48:17.015Z,45.09
2023-03-07T18:50:19.841Z,44.94
2023-03-07T18:52:22.407Z,45.08
2023-03-07T18:54:26.496Z,45.19
2023-03-07T18:56:29.817Z,45.09
2023-03-07T18:58:32.621Z,45.02
2023-03-07T19:00:35.218Z,45.38
2023-03-07T19:02:38.875Z,44.70
2023-03-07T19:04:41.466Z,45.00
2023-03-07T19:06:47.496Z,44.71
2023-03-07T19:08:50.581Z,45.07
2023-03-07T19:10:54.523Z,45.26
2023-03-07T19:12:57.107Z,45.68
2023-03-07T19:14:59.756Z,45.07
2023-03-07T19:17:02.342Z,45.36
2023-03-07T19:19:04.989Z,45.57
2023-03-07T19:21:08.592Z,45.15
2023-03-07T19:23:11.229Z,45.21
2023-03-07T19:25:13.779Z,44.72
2023-03-07T19:27:17.727Z,44.61
2023-03-07T19:29:20.342Z,44.63
2023-03-07T19:31:24.591Z,44.52
2023-03-07T19:33:27.368Z,45.09
2023-03-07T19:35:29.943Z,44.84
2023-03-07T19:37:32.528Z,45.27
2023-03-07T19:39:35.892Z,45.14
2023-03-07T19:41:39.644Z,45.32
2023-03-07T19:43:43.825Z,44.91
2023-03-07T19:45:50.153Z,44.77
2023-03-07T19:47:52.793Z,45.20
2023-03-07T19:49:55.336Z,44.91
2023-03-07T19:51:58.000Z,45.14
2023-03-07T19:54:01.793Z,44.99
2023-03-07T19:56:10.278Z,45.11
2023-03-07T19:58:13.289Z,45.05
2023-03-07T20:00:17.876Z,45.46
2023-03-07T20:02:22.196Z,45.10
2023-03-07T20:04:24.799Z,44.95
2023-03-07T20:06:29.581Z,45.36
2023-03-07T20:08:33.660Z,45.36
2023-03-07T20:10:36.258Z,45.30
2023-03-07T20:12:38.856Z,45.67
2023-03-07T20:14:43.045Z,45.85
2023-03-07T20:16:46.934Z,45.15
2023-03-07T20:18:50.351Z,45.67
2023-03-07T20:20:53.372Z,45.27
2023-03-07T20:22:56.237Z,45.40
2023-03-07T20:24:59.012Z,45.60
2023-03-07T20:27:01.564Z,45.57
2023-03-07T20:29:06.860Z,45.67
2023-03-07T20:31:10.792Z,45.52
2023-03-07T20:33:14.798Z,45.49
2023-03-07T20:35:18.813Z,45.63
2023-03-07T20:37:21.443Z,45.93
2023-03-07T20:39:24.022Z,45.68
2023-03-07T20:41:30.785Z,45.80
2023-03-07T20:43:34.054Z,45.11
2023-03-07T20:45:36.625Z,45.24
2023-03-07T20:47:39.186Z,45.08
2023-03-07T20:49:43.212Z,45.18
2023-03-07T20:51:45.801Z,45.75
2023-03-07T20:53:49.707Z,45.83
2023-03-07T20:55:52.299Z,45.21
2023-03-07T20:57:54.873Z,45.14
2023-03-07T20:59:57.491Z,45.70
2023-03-07T21:02:00.118Z,45.50
2023-03-07T21:04:06.290Z,45.70
2023-03-07T21:06:10.459Z,45.53
2023-03-07T21:08:13.259Z,46.07
2023-03-07T21:10:15.990Z,45.36
2023-03-07T21:12:18.667Z,45.28
2023-03-07T21:14:21.642Z,45.45
2023-03-07T21:16:27.163Z,45.21
2023-03-07T21:18:29.779Z,45.52
2023-03-07T21:20:32.401Z,45.49
2023-03-07T21:22:37.728Z,46.09
2023-03-07T21:24:40.510Z,45.64
2023-03-07T21:26:43.103Z,45.94
2023-03-07T21:28:46.488Z,46.10
2023-03-07T21:30:49.764Z,45.53
2023-03-07T21:32:56.395Z,45.54
2023-03-07T21:34:58.979Z,45.40
2023-03-07T21:37:01.551Z,45.25
2023-03-07T21:39:07.780Z,45.47
2023-03-07T21:41:10.599Z,46.04
2023-03-07T21:43:13.757Z,46.23
2023-03-07T21:45:16.372Z,45.98
2023-03-07T21:47:23.587Z,46.19
2023-03-07T21:49:26.117Z,46.12
2023-03-07T21:51:28.905Z,46.18
2023-03-07T21:53:32.280Z,46.03
2023-03-07T21:55:36.344Z,45.84
2023-03-07T21:57:38.943Z,46.17
2023-03-07T21:59:41.530Z,46.52
2023-03-07T22:01:44.097Z,46.48
2023-03-07T22:03:47.087Z,46.19
2023-03-07T22:05:49.819Z,45.94
2023-03-07T22:07:52.761Z,46.01
2023-03-07T22:09:55.346Z,46.18
2023-03-07T22:11:59.266Z,45.82
2023-03-07T22:14:01.806Z,46.37
2023-03-07T22:16:07.103Z,46.24
2023-03-07T22:18:09.926Z,46.28
2023-03-07T22:20:13.286Z,46.05
2023-03-07T22:22:15.897Z,46.30
2023-03-07T22:24:18.446Z,46.31
2023-03-07T22:26:20.995Z,46.15
2023-03-07T22:28:27.345Z,45.73
2023-03-07T22:30:29.951Z,45.39
2023-03-07T22:32:32.598Z,46.00
2023-03-07T22:34:35.329Z,46.28
2023-03-07T22:36:37.912Z,46.69
2023-03-07T22:38:41.655Z,45.92
2023-03-07T22:40:44.426Z,45.86
2023-03-07T22:42:47.107Z,45.86
2023-03-07T22:44:51.070Z,46.00
2023-03-07T22:46:53.706Z,46.20
2023-03-07T22:48:57.538Z,46.70
2023-03-07T22:51:00.797Z,46.66
2023-03-07T22:53:03.435Z,46.57
2023-03-07T22:55:06.665Z,46.55
2023-03-07T22:57:09.277Z,46.23
2023-03-07T22:59:11.910Z,46.78
2023-03-07T23:01:20.142Z,46.81
2023-03-07T23:03:23.416Z,46.99
2023-03-07T23:05:26.073Z,46.77
2023-03-07T23:07:28.644Z,46.12
2023-03-07T23:09:31.243Z,46.25
2023-03-07T23:11:35.863Z,46.18
2023-03-07T23:13:38.543Z,46.63
2023-03-07T23:15:41.647Z,46.07
2023-03-07T23:17:45.641Z,46.43
2023-03-07T23:19:48.585Z,46.34
2023-03-07T23:21:51.239Z,46.39
2023-03-07T23:23:55.009Z,46.71
2023-03-07T23:26:00.561Z,46.73
2023-03-07T23:28:03.163Z,46.72
2023-03-07T23:30:07.229Z,46.71
2023-03-07T23:32:10.068Z,46.86
2023-03-07T23:34:17.392Z,46.95
2023-03-07T23:36:19.983Z,47.31
2023-03-07T23:38:22.576Z,47.33
2023-03-07T23:40:25.149Z,47.95
2023-03-07T23:42:27.754Z,47.73
2023-03-07T23:44:30.442Z,47.36
2023-03-07T23:46:33.190Z,47.14
2023-03-07T23:48:35.813Z,47.20
2023-03-07T23:50:39.774Z,47.06
2023-03-07T23:52:42.676Z,47.42
2023-03-07T23:54:45.771Z,47.35
2023-03-07T23:56:48.347Z,47.67
2023-03-07T23:58:51.574Z,47.96
